Terminal Aerodrome Forecast
Issued by NWS Shreveport, LA

Home | Current Version | Previous Version | Text Only | Print | Product List | Glossary On
Versions: 1 2 3 4 5 6 7 8 9 10 11 12 13 14 15
000
FTUS44 KSHV 262352
TAFSHV
TAF
KSHV 262352Z 2700/2724 20013KT P6SM SCT035 SCT045
     FM270200 19011KT P6SM BKN045
     FM270500 19011KT P6SM BKN025 OVC040
      TEMPO 2710/2712 BKN007 OVC015
     FM271200 19009KT P6SM BKN007 OVC015
     FM271500 19012G17KT P6SM BKN015 OVC025
     FM272100 20011G17KT P6SM OVC050=

USA.gov is the U.S. government's official web portal to all federal, state and local government web resources and services.